Time;durP1;ratioP1;P1;durP2;ratioP2;P2;SDS_P1;SDS_P2;PMS_P1;PMS_P2;Temp;Humidity;BMP_temperature;BMP_pressure;BME280_temperature;BME280_humidity;BME280_pressure;Samples;Min_cycle;Max_cycle;Signal;HPM_P1;HPM_P2
2023/07/18 00:01:25;;;;;;;3.92;2.55;;;;;;;15.83;100.00;96460.81;5065807;28;24454;-75
2023/07/18 00:03:51;;;;;;;5.70;2.40;;;;;;;15.90;100.00;96459.44;5067080;28;24460;-75
2023/07/18 00:06:18;;;;;;;5.45;2.15;;;;;;;15.95;100.00;96456.50;5066468;28;24438;-76
2023/07/18 00:08:44;;;;;;;3.85;2.35;;;;;;;15.93;100.00;96453.16;5069258;28;24461;-76
2023/07/18 00:11:11;;;;;;;3.20;2.20;;;;;;;15.77;100.00;96463.91;5069578;28;24481;-75
2023/07/18 00:13:37;;;;;;;2.95;2.10;;;;;;;15.74;100.00;96464.13;5069614;28;24476;-76
2023/07/18 00:16:04;;;;;;;4.40;1.88;;;;;;;15.46;100.00;96460.84;5066665;28;24451;-75
2023/07/18 00:18:32;;;;;;;3.65;2.35;;;;;;;15.30;100.00;96468.09;5069393;28;24971;-75
2023/07/18 00:20:58;;;;;;;4.13;2.55;;;;;;;15.29;100.00;96469.03;5068517;28;24995;-75
2023/07/18 00:23:24;;;;;;;5.43;2.38;;;;;;;15.36;100.00;96467.66;5069697;28;24446;-75
2023/07/18 00:25:51;;;;;;;5.55;2.75;;;;;;;15.44;100.00;96478.41;5069552;28;24446;-75
2023/07/18 00:28:18;;;;;;;4.40;2.35;;;;;;;15.33;100.00;96469.66;5061416;28;25015;-76
2023/07/18 00:30:44;;;;;;;5.90;2.63;;;;;;;15.31;100.00;96469.75;5068595;28;24442;-76
2023/07/18 00:33:11;;;;;;;5.82;2.15;;;;;;;15.33;100.00;96467.06;5069424;28;25035;-75
2023/07/18 00:35:40;;;;;;;4.25;2.42;;;;;;;15.41;100.00;96462.94;5069689;28;24488;-76
2023/07/18 00:38:06;;;;;;;2.47;2.10;;;;;;;15.42;100.00;96474.22;5069823;28;24445;-75
2023/07/18 00:40:33;;;;;;;3.60;2.20;;;;;;;15.49;100.00;96465.00;5069660;28;24441;-75
2023/07/18 00:43:00;;;;;;;3.67;2.45;;;;;;;15.39;100.00;96464.84;5068845;28;24441;-76
2023/07/18 00:45:26;;;;;;;4.50;1.90;;;;;;;15.12;100.00;96466.78;5069598;28;24911;-75
2023/07/18 00:47:53;;;;;;;3.45;1.90;;;;;;;15.01;100.00;96459.69;5068663;28;24458;-76
2023/07/18 00:50:22;;;;;;;4.53;1.92;;;;;;;15.18;100.00;96459.34;5058670;28;24446;-76
2023/07/18 00:52:52;;;;;;;3.10;2.10;;;;;;;15.34;100.00;96463.50;5069448;28;24438;-76
2023/07/18 00:55:19;;;;;;;3.50;2.25;;;;;;;15.44;100.00;96462.72;5062661;28;24447;-75
2023/07/18 00:57:47;;;;;;;4.57;1.98;;;;;;;15.23;100.00;96464.25;5069715;28;24435;-76
2023/07/18 01:00:16;;;;;;;2.88;1.98;;;;;;;15.16;100.00;96457.78;5069650;28;24442;-75
2023/07/18 01:02:44;;;;;;;2.95;1.98;;;;;;;15.04;100.00;96458.66;5069432;28;24441;-75
2023/07/18 01:05:12;;;;;;;4.10;2.05;;;;;;;14.98;100.00;96452.94;5068897;28;24490;-75
2023/07/18 01:07:38;;;;;;;5.07;2.28;;;;;;;15.09;100.00;96446.97;5069100;28;24438;-75
2023/07/18 01:10:23;;;;;;;4.43;2.05;;;;;;;14.92;100.00;96444.69;5069320;28;24431;-76
2023/07/18 01:12:50;;;;;;;3.30;1.80;;;;;;;14.66;100.00;96436.06;5065705;28;24530;-76
2023/07/18 01:15:17;;;;;;;4.00;2.15;;;;;;;14.48;100.00;96445.94;5063124;28;24496;-75
2023/07/18 01:17:45;;;;;;;5.43;2.30;;;;;;;14.47;100.00;96445.09;5064815;28;24496;-75
2023/07/18 01:20:15;;;;;;;5.65;2.60;;;;;;;14.55;100.00;96449.00;5069431;28;24438;-75
2023/07/18 01:22:44;;;;;;;3.88;2.10;;;;;;;14.58;100.00;96446.19;5066394;28;24437;-75
2023/07/18 01:25:11;;;;;;;4.13;2.07;;;;;;;14.60;100.00;96439.06;5071209;28;24465;-75
2023/07/18 01:27:38;;;;;;;2.72;2.05;;;;;;;14.50;100.00;96437.09;5067929;28;24533;-75
2023/07/18 01:30:06;;;;;;;3.83;2.03;;;;;;;14.50;100.00;96433.66;5073374;28;24463;-75
2023/07/18 01:32:33;;;;;;;2.15;1.95;;;;;;;14.49;100.00;96438.03;5072881;28;25038;-75
2023/07/18 01:35:04;;;;;;;2.40;1.92;;;;;;;14.64;100.00;96430.09;5070084;28;24453;-75
2023/07/18 01:37:30;;;;;;;3.05;1.90;;;;;;;14.74;100.00;96431.97;5073148;28;24531;-75
2023/07/18 01:39:58;;;;;;;3.30;2.08;;;;;;;14.81;100.00;96435.00;5072748;28;24430;-75
2023/07/18 01:42:24;;;;;;;4.68;1.90;;;;;;;14.61;100.00;96430.31;5072822;28;24431;-75
2023/07/18 01:44:51;;;;;;;2.88;2.20;;;;;;;14.57;100.00;96434.06;5072350;28;24439;-75
2023/07/18 01:47:17;;;;;;;3.72;2.40;;;;;;;14.35;100.00;96435.50;5070529;28;24438;-75
2023/07/18 01:49:44;;;;;;;4.13;2.30;;;;;;;14.23;100.00;96429.31;5070859;28;24487;-75
2023/07/18 01:52:10;;;;;;;5.03;2.38;;;;;;;14.22;100.00;96427.66;5068261;28;24836;-75
2023/07/18 01:54:37;;;;;;;3.05;2.17;;;;;;;14.11;100.00;96422.34;5071320;28;24976;-75
2023/07/18 01:57:05;;;;;;;3.80;2.22;;;;;;;14.02;100.00;96421.19;5072484;28;24445;-75
2023/07/18 01:59:32;;;;;;;3.50;2.40;;;;;;;14.13;100.00;96423.06;5072365;28;24454;-75
2023/07/18 02:01:59;;;;;;;5.10;2.30;;;;;;;14.20;100.00;96413.91;5072244;28;25006;-75
2023/07/18 02:04:25;;;;;;;4.30;2.03;;;;;;;14.20;100.00;96415.66;5072411;28;24486;-75
2023/07/18 02:06:52;;;;;;;5.00;2.10;;;;;;;14.04;100.00;96419.28;5072237;28;25026;-76
2023/07/18 02:09:18;;;;;;;5.65;2.22;;;;;;;13.91;100.00;96420.22;5072529;28;24462;-75
2023/07/18 02:11:45;;;;;;;3.63;2.17;;;;;;;13.87;100.00;96421.34;5072294;28;24470;-75
2023/07/18 02:14:12;;;;;;;4.40;2.20;;;;;;;13.86;100.00;96417.06;5072099;28;24442;-75
2023/07/18 02:16:39;;;;;;;3.45;2.15;;;;;;;13.75;100.00;96415.16;5067225;28;24808;-75
2023/07/18 02:19:05;;;;;;;2.72;2.15;;;;;;;13.84;100.00;96417.19;5072168;28;24435;-75
2023/07/18 02:21:32;;;;;;;3.95;2.30;;;;;;;13.93;100.00;96413.97;5072289;28;24534;-75
2023/07/18 02:23:58;;;;;;;2.67;2.00;;;;;;;14.07;100.00;96417.44;5071983;28;25326;-75
2023/07/18 02:26:25;;;;;;;7.13;2.40;;;;;;;14.18;100.00;96418.38;5069160;28;24439;-75
2023/07/18 02:28:51;;;;;;;4.45;1.95;;;;;;;14.16;100.00;96420.25;5072123;28;24462;-76
2023/07/18 02:31:19;;;;;;;2.38;1.90;;;;;;;14.01;100.00;96421.25;5069936;28;24444;-76
2023/07/18 02:33:45;;;;;;;2.92;2.05;;;;;;;14.01;100.00;96421.25;5072411;28;24458;-76
2023/07/18 02:36:12;;;;;;;2.58;2.13;;;;;;;14.06;100.00;96408.78;5071251;28;24847;-76
2023/07/18 02:38:39;;;;;;;6.03;2.30;;;;;;;14.08;100.00;96417.31;5071973;28;25059;-76
2023/07/18 02:41:05;;;;;;;2.92;2.10;;;;;;;14.03;100.00;96404.59;5072158;28;24438;-76
2023/07/18 02:43:31;;;;;;;3.58;1.88;;;;;;;13.94;100.00;96420.00;5071910;28;24443;-76
2023/07/18 02:45:58;;;;;;;3.27;2.00;;;;;;;13.97;100.00;96415.41;5071846;28;24442;-76
2023/07/18 02:48:26;;;;;;;3.45;2.30;;;;;;;13.93;100.00;96423.53;5071737;28;24524;-75
2023/07/18 02:50:52;;;;;;;2.50;1.60;;;;;;;13.99;100.00;96410.97;5071790;28;24827;-76
2023/07/18 02:53:19;;;;;;;4.15;2.30;;;;;;;13.91;100.00;96413.25;5072063;28;24522;-76
2023/07/18 02:55:45;;;;;;;3.00;1.73;;;;;;;13.84;100.00;96418.94;5071347;28;24435;-76
2023/07/18 02:58:12;;;;;;;4.05;1.80;;;;;;;13.77;100.00;96413.31;5071719;28;24439;-76
2023/07/18 03:00:38;;;;;;;4.70;2.05;;;;;;;13.82;100.00;96416.44;5071711;28;24449;-76
2023/07/18 03:03:04;;;;;;;3.25;1.95;;;;;;;13.83;100.00;96418.13;5071810;28;24442;-76
2023/07/18 03:05:33;;;;;;;4.18;2.10;;;;;;;13.70;100.00;96409.44;5071313;28;24441;-76
2023/07/18 03:08:00;;;;;;;3.60;2.20;;;;;;;13.70;100.00;96412.03;5071615;28;24868;-76
2023/07/18 03:10:27;;;;;;;3.38;2.20;;;;;;;13.71;100.00;96405.88;5071613;28;24504;-76
2023/07/18 03:12:53;;;;;;;4.43;2.17;;;;;;;13.75;100.00;96413.38;5071233;28;25054;-76
2023/07/18 03:15:21;;;;;;;2.70;1.83;;;;;;;13.85;100.00;96408.44;5071037;28;24975;-76
2023/07/18 03:17:48;;;;;;;2.25;1.50;;;;;;;13.93;100.00;96406.16;5071405;28;24438;-76
2023/07/18 03:20:17;;;;;;;3.30;1.90;;;;;;;13.79;100.00;96414.88;5071339;28;24430;-76
2023/07/18 03:22:46;;;;;;;2.73;1.80;;;;;;;13.56;100.00;96410.31;5070941;28;25010;-76
2023/07/18 03:25:13;;;;;;;3.38;2.00;;;;;;;13.32;100.00;96404.94;5071092;28;24437;-76
2023/07/18 03:27:40;;;;;;;2.90;2.22;;;;;;;12.93;100.00;96403.03;5071177;28;24438;-76
2023/07/18 03:30:10;;;;;;;6.22;2.22;;;;;;;12.66;100.00;96405.56;5067190;28;24508;-76
2023/07/18 03:32:37;;;;;;;2.83;2.00;;;;;;;12.87;100.00;96409.44;5071641;28;24439;-77
2023/07/18 03:35:04;;;;;;;4.38;2.30;;;;;;;13.04;100.00;96413.59;5070365;28;25000;-76
2023/07/18 03:37:30;;;;;;;5.05;2.30;;;;;;;13.12;100.00;96411.34;5070635;28;24438;-76
2023/07/18 03:39:58;;;;;;;3.83;2.30;;;;;;;13.14;100.00;96400.84;5070826;28;24429;-76
2023/07/18 03:42:25;;;;;;;5.77;2.00;;;;;;;13.15;100.00;96400.75;5070938;28;24884;-76
2023/07/18 03:44:51;;;;;;;3.95;2.10;;;;;;;13.04;100.00;96397.97;5070220;28;24430;-75
2023/07/18 03:47:18;;;;;;;2.72;1.83;;;;;;;12.96;100.00;96388.06;5069922;28;24441;-77
2023/07/18 03:49:44;;;;;;;3.47;2.00;;;;;;;12.96;100.00;96389.84;5070087;28;24584;-77
2023/07/18 03:52:11;;;;;;;3.40;2.22;;;;;;;13.02;100.00;96389.47;5069739;28;24533;-76
2023/07/18 03:54:37;;;;;;;4.50;1.85;;;;;;;13.17;100.00;96395.47;5065182;28;24439;-76
2023/07/18 03:57:06;;;;;;;4.20;2.10;;;;;;;13.20;100.00;96401.31;5070179;28;24446;-76
2023/07/18 03:59:33;;;;;;;3.37;2.30;;;;;;;13.25;100.00;96395.84;5068724;28;24430;-76
2023/07/18 04:01:59;;;;;;;3.63;1.73;;;;;;;13.36;100.00;96397.75;5069854;28;24601;-77
2023/07/18 04:04:26;;;;;;;2.95;2.20;;;;;;;13.38;100.00;96391.50;5062840;28;24770;-76
2023/07/18 04:06:53;;;;;;;4.75;1.88;;;;;;;13.37;100.00;96394.22;5069424;28;24437;-76
2023/07/18 04:09:20;;;;;;;2.92;1.88;;;;;;;13.30;100.00;96386.78;5070171;28;24789;-76
2023/07/18 04:11:46;;;;;;;4.13;1.60;;;;;;;13.41;100.00;96382.69;5069936;28;24469;-76
2023/07/18 04:14:15;;;;;;;3.40;1.77;;;;;;;13.10;100.00;96382.00;5069121;28;24512;-76
2023/07/18 04:16:41;;;;;;;2.17;1.70;;;;;;;13.03;100.00;96381.56;5064415;28;24526;-76
2023/07/18 04:19:08;;;;;;;3.42;1.90;;;;;;;13.03;100.00;96385.91;5069788;28;24991;-76
2023/07/18 04:21:35;;;;;;;6.30;2.03;;;;;;;12.86;100.00;96383.53;5068443;28;25006;-76
2023/07/18 04:24:01;;;;;;;5.05;1.95;;;;;;;12.76;100.00;96386.72;5067394;28;24438;-75
2023/07/18 04:26:28;;;;;;;2.35;1.85;;;;;;;12.86;100.00;96386.13;5064437;28;24513;-76
2023/07/18 04:28:54;;;;;;;2.92;1.80;;;;;;;12.96;100.00;96377.66;5069569;28;24458;-76
2023/07/18 04:31:22;;;;;;;3.40;2.30;;;;;;;13.02;100.00;96379.06;5069825;28;25089;-76
2023/07/18 04:33:48;;;;;;;4.00;2.20;;;;;;;13.06;100.00;96388.34;5069073;28;24431;-76
2023/07/18 04:36:15;;;;;;;7.63;1.92;;;;;;;13.15;100.00;96376.50;5068068;28;24438;-76
2023/07/18 04:38:42;;;;;;;2.42;1.73;;;;;;;13.25;100.00;96381.06;5068079;28;24581;-76
2023/07/18 04:41:09;;;;;;;2.95;1.80;;;;;;;13.44;100.00;96379.88;5069646;28;25113;-76
2023/07/18 04:43:35;;;;;;;3.20;2.28;;;;;;;13.51;100.00;96386.38;5069237;28;24431;-75
2023/07/18 04:46:01;;;;;;;2.33;2.13;;;;;;;13.69;100.00;96379.97;5067174;28;24442;-76
2023/07/18 04:48:29;;;;;;;3.60;1.90;;;;;;;13.61;100.00;96378.78;5065260;28;24851;-76
2023/07/18 04:50:58;;;;;;;4.97;2.33;;;;;;;13.76;100.00;96378.63;5069479;28;24447;-76
2023/07/18 04:53:26;;;;;;;2.97;1.80;;;;;;;13.94;100.00;96376.59;5069551;28;24983;-76
2023/07/18 04:55:54;;;;;;;4.47;2.03;;;;;;;13.93;100.00;96374.91;5068976;28;24434;-76
2023/07/18 04:58:21;;;;;;;4.80;2.40;;;;;;;13.93;100.00;96377.50;5061863;28;24496;-76
2023/07/18 05:00:47;;;;;;;5.43;2.47;;;;;;;13.96;100.00;96366.06;5068312;28;24498;-76
2023/07/18 05:03:13;;;;;;;5.82;2.45;;;;;;;13.97;100.00;96371.16;5069276;28;24449;-76
2023/07/18 05:05:41;;;;;;;3.65;2.47;;;;;;;14.07;100.00;96373.97;5067086;28;24446;-76
2023/07/18 05:08:08;;;;;;;3.38;1.98;;;;;;;14.17;100.00;96369.00;5067548;28;24441;-75
2023/07/18 05:10:34;;;;;;;2.90;1.90;;;;;;;14.14;100.00;96369.19;5066121;28;24455;-76
2023/07/18 05:13:01;;;;;;;4.60;1.90;;;;;;;13.98;100.00;96365.03;5060489;28;24446;-79
2023/07/18 05:15:27;;;;;;;3.13;1.98;;;;;;;13.89;100.00;96359.59;5069331;28;24439;-77
2023/07/18 05:17:53;;;;;;;3.80;2.13;;;;;;;13.85;100.00;96360.72;5070322;28;24443;-77
2023/07/18 05:20:20;;;;;;;8.45;2.30;;;;;;;13.89;100.00;96359.59;5070530;28;24434;-77
2023/07/18 05:22:48;;;;;;;4.03;2.20;;;;;;;14.07;100.00;96363.56;5070673;28;24496;-77
2023/07/18 05:25:16;;;;;;;6.45;2.30;;;;;;;14.36;100.00;96355.56;5071887;28;24447;-77
2023/07/18 05:27:44;;;;;;;5.25;2.25;;;;;;;14.42;100.00;96352.50;5069475;28;24999;-76
2023/07/18 05:30:15;;;;;;;3.77;2.33;;;;;;;14.14;100.00;96353.56;5068629;28;24554;-76
2023/07/18 05:32:42;;;;;;;5.40;2.30;;;;;;;14.19;100.00;96356.69;5069353;28;24434;-76
2023/07/18 05:35:11;;;;;;;2.97;1.98;;;;;;;14.41;100.00;96353.47;5068542;28;24461;-76
2023/07/18 05:37:37;;;;;;;4.13;2.10;;;;;;;14.74;100.00;96353.75;5067723;28;24503;-75
2023/07/18 05:40:09;;;;;;;4.10;2.15;;;;;;;14.98;100.00;96347.72;5064859;28;24450;-75
2023/07/18 05:42:36;;;;;;;4.07;1.90;;;;;;;15.19;100.00;96351.41;5066465;28;25052;-76
2023/07/18 05:45:02;;;;;;;5.45;2.03;;;;;;;14.97;100.00;96346.06;5068331;28;24805;-76
2023/07/18 05:47:29;;;;;;;7.28;1.83;;;;;;;14.89;100.00;96341.41;5068847;28;24450;-76
2023/07/18 05:49:55;;;;;;;4.15;1.98;;;;;;;15.03;100.00;96342.22;5068155;28;24446;-76
2023/07/18 05:52:22;;;;;;;3.03;1.98;;;;;;;15.14;100.00;96335.28;5066802;28;24434;-76
2023/07/18 05:54:48;;;;;;;4.60;2.13;;;;;;;15.03;100.00;96339.59;5068462;28;24441;-74
2023/07/18 05:57:16;;;;;;;4.35;2.30;;;;;;;15.06;100.00;96336.78;5065189;28;24442;-76
2023/07/18 05:59:42;;;;;;;4.25;2.15;;;;;;;15.05;100.00;96335.09;5070638;28;24521;-79
2023/07/18 06:02:09;;;;;;;4.10;2.07;;;;;;;15.21;100.00;96341.72;5070980;28;24884;-80
2023/07/18 06:04:37;;;;;;;3.28;1.80;;;;;;;15.61;100.00;96335.34;5070707;28;24442;-77
2023/07/18 06:07:04;;;;;;;3.05;1.85;;;;;;;15.98;100.00;96330.84;5071066;28;24435;-78
2023/07/18 06:09:31;;;;;;;3.83;2.08;;;;;;;16.30;100.00;96322.38;5070490;28;24983;-76
2023/07/18 06:11:58;;;;;;;3.08;1.90;;;;;;;16.51;98.15;96323.31;5071429;28;24503;-76
2023/07/18 06:14:27;;;;;;;4.20;1.75;;;;;;;16.41;96.48;96325.81;5073685;28;24474;-78
2023/07/18 06:16:53;;;;;;;9.30;1.77;;;;;;;16.32;96.66;96323.09;5073810;28;24473;-78
2023/07/18 06:19:21;;;;;;;4.20;2.03;;;;;;;16.49;96.09;96324.38;5074607;28;24518;-77
2023/07/18 06:21:48;;;;;;;2.75;1.75;;;;;;;16.72;93.25;96325.19;5074646;28;24835;-78
2023/07/18 06:24:16;;;;;;;5.72;1.92;;;;;;;16.84;91.33;96319.88;5074341;28;24419;-78
2023/07/18 06:26:48;;;;;;;5.85;1.75;;;;;;;16.82;89.87;96320.94;5073447;28;24518;-77
2023/07/18 06:29:15;;;;;;;5.85;1.60;;;;;;;16.78;89.63;96324.75;5073996;28;25032;-76
2023/07/18 06:31:43;;;;;;;4.28;1.80;;;;;;;16.84;86.30;96314.66;5073524;28;24441;-78
2023/07/18 06:34:09;;;;;;;4.13;1.70;;;;;;;17.08;86.88;96316.25;5070431;28;24447;-77
2023/07/18 06:36:35;;;;;;;3.95;1.55;;;;;;;17.29;88.34;96314.53;5068781;28;24442;-77
2023/07/18 06:39:03;;;;;;;5.23;1.97;;;;;;;17.49;84.85;96312.06;5069764;28;24450;-79
2023/07/18 06:41:30;;;;;;;4.03;1.90;;;;;;;17.39;78.86;96307.59;5073901;28;25047;-79
2023/07/18 06:43:56;;;;;;;3.38;1.60;;;;;;;17.57;80.43;96309.66;5076825;28;25003;-77
2023/07/18 06:46:23;;;;;;;4.10;1.83;;;;;;;17.65;78.70;96310.69;5065437;28;24488;-77
2023/07/18 06:48:52;;;;;;;2.22;1.30;;;;;;;18.10;78.27;96309.66;5075434;28;24442;-77
2023/07/18 06:51:19;;;;;;;3.58;1.67;;;;;;;18.49;78.02;96305.41;5071206;28;24527;-77
2023/07/18 06:53:46;;;;;;;6.70;1.30;;;;;;;18.95;76.16;96311.09;5077497;28;24434;-77
2023/07/18 06:56:12;;;;;;;3.30;1.50;;;;;;;18.94;71.46;96312.06;5074887;28;25057;-75
2023/07/18 06:58:39;;;;;;;2.47;1.60;;;;;;;19.06;73.02;96311.84;5071478;28;24840;-77
2023/07/18 07:01:05;;;;;;;3.58;1.83;;;;;;;19.11;70.87;96311.41;5074684;28;24434;-77
2023/07/18 07:03:32;;;;;;;7.93;1.80;;;;;;;19.14;71.40;96305.06;5074764;28;24438;-77
2023/07/18 07:06:00;;;;;;;6.03;1.63;;;;;;;19.28;71.21;96299.41;5073215;28;24446;-77
2023/07/18 07:08:26;;;;;;;3.72;1.73;;;;;;;19.18;71.49;96290.72;5073647;28;24438;-77
2023/07/18 07:11:04;;;;;;;2.95;1.55;;;;;;;19.39;70.90;96296.66;5073475;28;24477;-79
2023/07/18 07:13:30;;;;;;;8.60;2.03;;;;;;;19.92;69.08;96285.72;5072730;28;24466;-76
2023/07/18 07:15:57;;;;;;;3.78;1.80;;;;;;;20.15;68.85;96283.59;5066587;28;24442;-76
2023/07/18 07:18:23;;;;;;;4.38;2.00;;;;;;;20.19;68.54;96276.25;5071316;28;24450;-78
2023/07/18 07:20:51;;;;;;;5.05;1.80;;;;;;;20.36;68.04;96267.63;5072605;28;24488;-78
2023/07/18 07:23:18;;;;;;;7.13;1.98;;;;;;;20.42;66.52;96269.66;5067896;28;24457;-78
2023/07/18 07:25:45;;;;;;;3.60;1.90;;;;;;;20.54;65.61;96270.31;5068126;28;25007;-78
2023/07/18 07:28:11;;;;;;;2.60;1.75;;;;;;;20.70;66.85;96264.44;5073034;28;24438;-79
2023/07/18 07:30:38;;;;;;;3.97;1.50;;;;;;;20.91;64.26;96264.16;5072602;28;24495;-77
2023/07/18 07:33:05;;;;;;;4.80;1.80;;;;;;;21.15;62.45;96261.78;5072717;28;24431;-77
2023/07/18 07:35:32;;;;;;;4.18;1.73;;;;;;;21.19;61.23;96257.06;5074499;28;24976;-77
2023/07/18 07:37:59;;;;;;;2.53;1.73;;;;;;;21.18;61.22;96258.03;5071128;28;24442;-77
2023/07/18 07:40:27;;;;;;;6.55;1.80;;;;;;;21.34;62.39;96255.56;5071585;28;24434;-78
2023/07/18 07:42:53;;;;;;;3.60;1.60;;;;;;;21.70;60.95;96255.56;5071834;28;24465;-78
2023/07/18 07:45:21;;;;;;;8.57;1.77;;;;;;;22.20;59.06;96237.25;5065264;28;24446;-78
2023/07/18 07:47:48;;;;;;;6.18;1.65;;;;;;;22.07;55.58;96238.66;5074575;28;24580;-78
2023/07/18 07:50:14;;;;;;;2.72;1.30;;;;;;;22.23;57.33;96236.13;5074687;28;24823;-75
2023/07/18 07:52:41;;;;;;;3.45;1.63;;;;;;;22.48;57.61;96230.97;5071760;28;24469;-78
2023/07/18 07:55:08;;;;;;;5.05;1.73;;;;;;;22.51;55.79;96230.66;5070828;28;24450;-78
2023/07/18 07:57:36;;;;;;;4.47;2.05;;;;;;;22.24;56.19;96227.22;5069850;28;24839;-78
2023/07/18 08:00:02;;;;;;;4.53;1.77;;;;;;;22.17;55.96;96229.69;5070073;28;24431;-77
2023/07/18 08:02:29;;;;;;;5.23;2.00;;;;;;;22.22;55.66;96221.31;5070187;28;24812;-76
2023/07/18 08:04:55;;;;;;;4.35;1.60;;;;;;;22.39;54.51;96220.38;5070171;28;24492;-76
2023/07/18 08:07:22;;;;;;;6.47;1.80;;;;;;;22.58;52.68;96227.22;5058309;28;24446;-76
2023/07/18 08:09:49;;;;;;;7.10;1.60;;;;;;;22.76;52.10;96226.28;5070140;28;24442;-75
2023/07/18 08:12:16;;;;;;;6.35;1.60;;;;;;;22.65;51.58;96225.59;5070158;28;24445;-77
2023/07/18 08:14:44;;;;;;;4.28;1.77;;;;;;;22.74;52.51;96231.72;5069977;28;24438;-77
2023/07/18 08:17:11;;;;;;;4.13;1.65;;;;;;;23.46;53.16;96220.66;5065712;28;24439;-75
2023/07/18 08:19:37;;;;;;;3.15;1.63;;;;;;;23.80;49.83;96201.97;5070306;28;24430;-78
2023/07/18 08:22:04;;;;;;;4.95;1.60;;;;;;;24.07;49.92;96211.34;5070343;28;24972;-78
2023/07/18 08:24:31;;;;;;;5.55;1.70;;;;;;;24.06;48.65;96212.34;5069989;28;24880;-77
2023/07/18 08:26:58;;;;;;;4.90;1.80;;;;;;;24.03;47.60;96207.38;5064806;28;24821;-78
2023/07/18 08:29:25;;;;;;;6.27;1.70;;;;;;;23.99;47.18;96209.56;5066856;28;24442;-77
2023/07/18 08:31:54;;;;;;;2.97;1.40;;;;;;;23.72;46.64;96213.38;5067820;28;24454;-77
2023/07/18 08:34:21;;;;;;;4.90;1.63;;;;;;;23.76;47.75;96205.94;5064942;28;24541;-77
2023/07/18 08:36:47;;;;;;;3.75;1.70;;;;;;;23.53;47.34;96196.03;5065484;28;24442;-77
2023/07/18 08:39:14;;;;;;;4.00;1.70;;;;;;;23.66;52.20;96198.19;5070250;28;24446;-76
2023/07/18 08:41:43;;;;;;;4.50;1.77;;;;;;;23.87;47.23;96195.00;5064857;28;24485;-78
2023/07/18 08:44:10;;;;;;;4.25;1.63;;;;;;;24.36;47.21;96203.66;5067499;28;24793;-77
2023/07/18 08:46:37;;;;;;;9.05;1.55;;;;;;;24.58;45.09;96201.25;5062825;28;24435;-77
2023/07/18 08:49:06;;;;;;;3.00;1.70;;;;;;;25.12;43.25;96201.31;5068949;28;24439;-78
2023/07/18 08:51:33;;;;;;;5.43;1.80;;;;;;;25.39;44.78;96193.81;5066742;28;24508;-77
2023/07/18 08:53:59;;;;;;;4.22;1.52;;;;;;;25.23;41.21;96185.00;5069535;28;24434;-77
2023/07/18 08:56:26;;;;;;;5.57;1.97;;;;;;;24.81;42.52;96178.31;5069848;28;24446;-78
2023/07/18 08:58:53;;;;;;;6.55;2.13;;;;;;;24.74;42.52;96179.19;5069589;28;25056;-78
2023/07/18 09:01:20;;;;;;;5.53;1.52;;;;;;;24.95;43.12;96178.53;5070058;28;24434;-77
2023/07/18 09:03:46;;;;;;;2.28;1.42;;;;;;;24.97;42.04;96177.38;5068159;28;24530;-78
2023/07/18 09:06:21;;;;;;;7.22;1.98;;;;;;;24.80;41.71;96179.28;5069787;28;24442;-75
2023/07/18 09:08:49;;;;;;;2.97;1.70;;;;;;;24.68;42.44;96171.91;5069390;28;24435;-77
2023/07/18 09:11:19;;;;;;;3.45;1.70;;;;;;;25.08;46.91;96168.19;5069606;28;24455;-77
2023/07/18 09:13:46;;;;;;;5.53;2.05;;;;;;;25.56;46.94;96164.34;5069910;28;24445;-74
2023/07/18 09:16:14;;;;;;;5.38;2.13;;;;;;;25.62;40.52;96165.44;5072159;28;24440;-74
2023/07/18 09:18:44;;;;;;;4.30;2.10;;;;;;;25.14;42.18;96159.56;5069612;28;24518;-74
2023/07/18 09:21:11;;;;;;;3.92;2.00;;;;;;;25.53;42.06;96170.00;5069671;28;24423;-74
2023/07/18 09:23:41;;;;;;;4.07;2.00;;;;;;;25.32;40.60;96165.38;5069943;28;24431;-74
2023/07/18 09:26:09;;;;;;;5.80;2.05;;;;;;;25.60;41.49;96170.09;5072168;28;24578;-75
2023/07/18 09:28:36;;;;;;;3.33;2.17;;;;;;;25.35;42.04;96172.97;5056022;28;24992;-75
2023/07/18 09:31:03;;;;;;;4.68;2.30;;;;;;;26.05;42.38;96160.41;5063584;28;24852;-75
2023/07/18 09:33:29;;;;;;;3.60;2.08;;;;;;;25.87;41.01;96171.34;5070015;28;24456;-75
2023/07/18 09:35:58;;;;;;;3.38;2.00;;;;;;;25.81;41.03;96182.72;5069341;28;24481;-75
2023/07/18 09:38:26;;;;;;;4.85;2.28;;;;;;;25.58;42.41;96182.72;5067063;28;24510;-75
2023/07/18 09:40:55;;;;;;;6.47;2.40;;;;;;;25.39;41.40;96172.63;5069202;28;24473;-74
2023/07/18 09:43:23;;;;;;;8.10;2.10;;;;;;;25.72;42.27;96173.16;5061847;28;24809;-74
2023/07/18 09:45:52;;;;;;;7.47;2.35;;;;;;;26.21;42.11;96177.97;5063553;28;24863;-75
2023/07/18 09:48:18;;;;;;;4.32;2.40;;;;;;;26.48;40.51;96211.88;5067901;28;24434;-74
2023/07/18 09:50:47;;;;;;;2.55;1.70;;;;;;;26.59;40.53;96237.13;5072005;28;24458;-75
2023/07/18 09:53:15;;;;;;;3.40;2.13;;;;;;;26.23;40.66;96255.59;5073092;28;24434;-75
2023/07/18 09:55:44;;;;;;;4.65;2.15;;;;;;;25.72;42.42;96271.31;5072421;28;24449;-75
2023/07/18 09:58:13;;;;;;;3.35;2.20;;;;;;;25.41;43.50;96258.13;5073001;28;24480;-75
2023/07/18 10:00:41;;;;;;;9.77;2.47;;;;;;;25.64;43.03;96244.84;5072315;28;24433;-76
2023/07/18 10:03:09;;;;;;;3.88;2.08;;;;;;;25.20;43.48;96233.06;5073061;28;24469;-75
2023/07/18 10:05:35;;;;;;;7.38;2.25;;;;;;;24.82;43.92;96219.69;5066557;28;24433;-75
2023/07/18 10:08:05;;;;;;;3.88;2.22;;;;;;;24.93;44.97;96202.56;5072776;28;24430;-75
2023/07/18 10:10:32;;;;;;;5.45;2.47;;;;;;;24.68;45.50;96185.97;5072471;28;24430;-75
2023/07/18 10:13:00;;;;;;;4.50;2.45;;;;;;;24.55;46.10;96157.44;5072201;28;24525;-76
2023/07/18 10:15:28;;;;;;;7.70;2.30;;;;;;;24.56;45.43;96131.78;5072045;28;24427;-75
2023/07/18 10:17:55;;;;;;;3.88;2.35;;;;;;;24.48;46.72;96089.47;5072442;28;24513;-75
2023/07/18 10:20:31;;;;;;;4.78;2.13;;;;;;;24.71;47.81;96005.53;5072447;28;25006;-76
2023/07/18 10:22:59;;;;;;;6.22;2.45;;;;;;;24.25;49.25;95824.72;5066665;28;24434;-75
2023/07/18 10:25:28;;;;;;;7.32;2.80;;;;;;;23.92;50.51;95803.84;5067723;28;24439;-74
2023/07/18 10:27:55;;;;;;;11.20;2.50;;;;;;;23.84;51.88;95885.88;5071163;28;24478;-72
2023/07/18 10:30:22;;;;;;;5.32;2.67;;;;;;;24.08;50.05;95922.78;5072039;28;24793;-79
2023/07/18 10:32:55;;;;;;;7.32;2.85;;;;;;;24.64;55.20;95925.16;5072656;28;24450;-78
2023/07/18 10:35:24;;;;;;;4.53;2.00;;;;;;;24.95;48.13;95985.94;5072120;28;24963;-79
2023/07/18 10:37:53;;;;;;;3.30;2.10;;;;;;;25.30;49.02;96061.34;5077523;28;24439;-78
2023/07/18 10:40:33;;;;;;;5.07;2.40;;;;;;;25.55;47.09;96084.97;5078634;28;24472;-78
2023/07/18 10:43:01;;;;;;;4.30;2.20;;;;;;;25.73;45.78;96109.28;5064233;28;25185;-78
2023/07/18 10:45:29;;;;;;;5.68;3.00;;;;;;;25.88;44.81;96140.34;5071438;28;24512;-78
2023/07/18 10:47:56;;;;;;;4.30;2.83;;;;;;;26.08;44.04;96145.94;5071807;28;24434;-78
2023/07/18 10:50:23;;;;;;;4.00;2.83;;;;;;;25.83;43.77;96186.81;5072386;28;24911;-79
2023/07/18 10:52:50;;;;;;;5.78;2.72;;;;;;;25.68;44.41;96246.97;5071579;28;24930;-78
2023/07/18 10:55:16;;;;;;;5.80;2.42;;;;;;;25.78;44.85;96262.63;5071331;28;24446;-77
2023/07/18 10:57:43;;;;;;;4.38;2.03;;;;;;;25.69;44.36;96253.91;5071365;28;24521;-77
2023/07/18 11:00:10;;;;;;;5.25;2.65;;;;;;;25.30;44.69;96220.41;5072022;28;24438;-78
2023/07/18 11:02:39;;;;;;;4.03;2.37;;;;;;;25.49;45.80;96207.66;5072624;28;24442;-77
2023/07/18 11:05:12;;;;;;;2.95;2.10;;;;;;;25.48;45.46;96198.06;5069916;28;24442;-77
2023/07/18 11:07:40;;;;;;;5.80;2.63;;;;;;;25.10;46.73;96198.00;5064425;28;24443;-78
2023/07/18 11:10:08;;;;;;;3.95;2.50;;;;;;;24.92;46.76;96208.03;5070432;28;24558;-77
2023/07/18 11:12:34;;;;;;;5.78;2.50;;;;;;;24.81;48.04;96218.03;5073078;28;24454;-77
2023/07/18 11:15:05;;;;;;;4.25;2.70;;;;;;;24.53;48.81;96214.19;5069909;28;24446;-77
2023/07/18 11:17:32;;;;;;;4.90;2.40;;;;;;;24.42;49.65;96219.88;5072746;28;24528;-77
2023/07/18 11:19:59;;;;;;;4.22;2.78;;;;;;;24.44;49.53;96209.94;5071688;28;24439;-77
2023/07/18 11:22:29;;;;;;;11.40;2.60;;;;;;;24.23;50.80;96227.19;5072005;28;24437;-77
2023/07/18 11:24:56;;;;;;;5.05;2.33;;;;;;;24.34;52.37;96192.41;5068532;28;24542;-77
2023/07/18 11:27:24;;;;;;;6.13;2.87;;;;;;;24.30;55.38;96185.81;5070856;28;24484;-77
2023/07/18 11:29:58;;;;;;;5.13;2.42;;;;;;;24.22;56.63;96175.25;5069527;28;25030;-77